createdAt,value
2018-07-06T00:00:07.030Z,11.45
2018-07-06T00:03:28.931Z,11.08
2018-07-06T00:06:50.819Z,10.20
2018-07-06T00:10:12.565Z,9.78
2018-07-06T00:13:34.097Z,10.25
2018-07-06T00:16:55.612Z,8.85
2018-07-06T00:20:17.341Z,9.93
2018-07-06T00:23:38.934Z,9.30
2018-07-06T00:27:00.775Z,9.90
2018-07-06T00:30:22.657Z,9.33
2018-07-06T00:33:44.512Z,13.70
2018-07-06T00:37:06.159Z,10.38
2018-07-06T00:40:27.734Z,10.88
2018-07-06T00:43:49.739Z,11.38
2018-07-06T00:47:11.459Z,13.78
2018-07-06T00:50:33.385Z,9.48
2018-07-06T00:53:54.628Z,9.60
2018-07-06T00:57:16.238Z,13.95
2018-07-06T01:00:37.960Z,10.50
2018-07-06T01:03:59.738Z,11.83
2018-07-06T01:07:21.956Z,11.50
2018-07-06T01:10:43.604Z,11.45
2018-07-06T01:14:05.147Z,13.48
2018-07-06T01:17:27.099Z,8.83
2018-07-06T01:20:48.424Z,11.43
2018-07-06T01:24:10.359Z,12.20
2018-07-06T01:27:32.158Z,11.57
2018-07-06T01:30:54.351Z,13.03
2018-07-06T01:34:16.047Z,12.00
2018-07-06T01:37:37.917Z,11.80
2018-07-06T01:40:59.916Z,10.98
2018-07-06T01:44:21.513Z,13.68
2018-07-06T01:47:43.517Z,10.32
2018-07-06T01:51:05.367Z,13.10
2018-07-06T01:54:26.927Z,11.28
2018-07-06T01:57:48.737Z,13.08
2018-07-06T02:01:10.543Z,13.10
2018-07-06T02:04:32.023Z,15.93
2018-07-06T02:07:53.957Z,14.58
2018-07-06T02:11:16.311Z,14.87
2018-07-06T02:14:37.696Z,10.85
2018-07-06T02:17:59.707Z,13.90
2018-07-06T02:21:21.425Z,14.20
2018-07-06T02:24:43.348Z,12.00
2018-07-06T02:28:05.214Z,17.35
2018-07-06T02:31:27.022Z,15.32
2018-07-06T02:34:48.990Z,14.70
2018-07-06T02:38:10.101Z,12.82
2018-07-06T02:41:31.804Z,14.25
2018-07-06T02:44:53.648Z,13.30
2018-07-06T02:48:15.416Z,13.13
2018-07-06T02:51:37.323Z,11.80
2018-07-06T02:54:59.467Z,13.65
2018-07-06T02:58:21.812Z,14.50
2018-07-06T03:01:43.208Z,13.53
2018-07-06T03:05:04.930Z,15.53
2018-07-06T03:08:27.222Z,11.50
2018-07-06T03:11:48.744Z,13.55
2018-07-06T03:15:10.074Z,13.88
2018-07-06T03:18:31.978Z,14.70
2018-07-06T03:21:53.876Z,13.72
2018-07-06T03:25:15.932Z,16.57
2018-07-06T03:28:37.704Z,16.00
2018-07-06T03:31:59.515Z,16.87
2018-07-06T03:35:21.271Z,19.07
2018-07-06T03:38:43.162Z,20.45
2018-07-06T03:42:05.050Z,17.20
2018-07-06T03:45:27.632Z,14.45
2018-07-06T03:48:49.335Z,18.65
2018-07-06T03:52:11.434Z,15.28
2018-07-06T03:55:33.108Z,18.30
2018-07-06T03:58:54.744Z,16.50
2018-07-06T04:02:16.689Z,16.00
2018-07-06T04:05:38.952Z,16.35
2018-07-06T04:09:00.851Z,15.98
2018-07-06T04:12:22.912Z,13.75
2018-07-06T04:15:44.192Z,16.95
2018-07-06T04:19:12.455Z,15.25
2018-07-06T04:22:34.616Z,14.98
2018-07-06T04:25:56.171Z,13.62
2018-07-06T04:29:17.857Z,13.72
2018-07-06T04:32:39.754Z,14.87
2018-07-06T04:36:01.103Z,12.05
2018-07-06T04:39:23.103Z,12.35
2018-07-06T04:42:45.203Z,12.45
2018-07-06T04:46:06.418Z,12.28
2018-07-06T04:49:28.421Z,10.70
2018-07-06T04:52:50.161Z,10.85
2018-07-06T04:56:12.359Z,12.07
2018-07-06T04:59:33.736Z,12.98
2018-07-06T05:02:55.542Z,8.78
2018-07-06T05:06:17.407Z,9.35
2018-07-06T05:09:40.129Z,10.70
2018-07-06T05:13:01.484Z,9.65
2018-07-06T05:16:23.217Z,11.60
2018-07-06T05:19:45.361Z,13.65
2018-07-06T05:23:06.838Z,10.53
2018-07-06T05:26:28.540Z,11.70
2018-07-06T05:29:50.455Z,12.07
2018-07-06T05:33:12.624Z,10.90
2018-07-06T05:36:34.311Z,11.85
2018-07-06T05:39:56.211Z,11.95
2018-07-06T05:43:17.810Z,10.95
2018-07-06T05:46:39.624Z,11.48
2018-07-06T05:50:01.222Z,11.90
2018-07-06T05:53:23.179Z,11.57
2018-07-06T05:56:44.878Z,11.78
2018-07-06T06:00:07.050Z,10.45
2018-07-06T06:03:29.258Z,12.88
2018-07-06T06:06:50.862Z,10.88
2018-07-06T06:10:01.753Z,11.95
2018-07-06T06:13:12.478Z,11.63
2018-07-06T06:16:23.128Z,12.70
2018-07-06T06:19:34.210Z,10.98
2018-07-06T06:22:44.888Z,11.00
2018-07-06T06:25:55.860Z,8.75
2018-07-06T06:29:06.615Z,8.15
2018-07-06T06:32:17.508Z,9.43
2018-07-06T06:35:28.177Z,12.23
2018-07-06T06:38:39.110Z,11.00
2018-07-06T06:41:49.917Z,12.00
2018-07-06T06:45:00.829Z,9.15
2018-07-06T06:48:11.570Z,9.28
2018-07-06T06:51:22.367Z,10.15
2018-07-06T06:54:33.142Z,10.82
2018-07-06T06:57:44.016Z,10.35
2018-07-06T07:00:54.759Z,12.33
2018-07-06T07:04:05.495Z,12.40
2018-07-06T07:07:15.518Z,10.38
2018-07-06T07:10:26.661Z,10.23
2018-07-06T07:13:37.099Z,10.80
2018-07-06T07:16:47.245Z,14.50
2018-07-06T07:19:58.057Z,13.30
2018-07-06T07:23:08.460Z,12.07
2018-07-06T07:26:18.938Z,13.60
2018-07-06T07:29:29.799Z,13.93
2018-07-06T07:32:39.994Z,13.10
2018-07-06T07:35:50.842Z,11.70
2018-07-06T07:39:01.778Z,11.18
2018-07-06T07:42:12.760Z,11.57
2018-07-06T07:45:23.241Z,15.88
2018-07-06T07:48:34.013Z,14.60
2018-07-06T07:51:58.176Z,15.20
2018-07-06T07:55:08.897Z,14.93
2018-07-06T07:58:19.668Z,13.28
2018-07-06T08:01:30.298Z,13.62
2018-07-06T08:04:40.903Z,19.27
2018-07-06T08:07:51.644Z,18.17
2018-07-06T08:11:03.109Z,13.22
2018-07-06T08:14:13.342Z,16.70
2018-07-06T08:17:23.937Z,15.83
2018-07-06T08:20:35.745Z,18.90
2018-07-06T08:23:45.843Z,19.32
2018-07-06T08:26:56.792Z,17.82
2018-07-06T08:30:07.360Z,18.95
2018-07-06T08:33:17.976Z,15.50
2018-07-06T08:37:52.573Z,21.45
2018-07-06T08:41:03.275Z,18.12
2018-07-06T08:44:13.116Z,16.48
2018-07-06T08:47:23.609Z,14.85
2018-07-06T08:50:34.040Z,15.95
2018-07-06T08:53:44.145Z,14.80
2018-07-06T08:56:54.032Z,15.95
2018-07-06T09:00:03.889Z,16.73
2018-07-06T09:03:14.800Z,24.23
2018-07-06T09:06:24.907Z,16.57
2018-07-06T09:09:35.509Z,18.55
2018-07-06T09:12:46.607Z,21.40
2018-07-06T09:15:56.931Z,17.55
2018-07-06T09:19:07.774Z,20.77
2018-07-06T09:22:18.338Z,23.22
2018-07-06T09:25:28.990Z,22.52
2018-07-06T09:28:39.752Z,14.83
2018-07-06T09:31:49.736Z,21.50
2018-07-06T09:35:00.557Z,16.90
2018-07-06T09:38:11.059Z,24.55
2018-07-06T09:41:21.000Z,20.57
2018-07-06T09:44:31.924Z,23.95
2018-07-06T09:47:41.855Z,26.00
2018-07-06T09:50:52.801Z,24.20
2018-07-06T09:54:03.142Z,20.43
2018-07-06T09:57:13.259Z,28.73
2018-07-06T10:00:28.432Z,24.27
2018-07-06T10:03:38.930Z,23.75
2018-07-06T10:06:49.658Z,29.50
2018-07-06T10:10:00.116Z,19.62
2018-07-06T10:13:11.754Z,27.58
2018-07-06T10:16:22.684Z,24.87
2018-07-06T10:19:32.889Z,22.52
2018-07-06T10:22:43.971Z,25.82
2018-07-06T10:25:54.800Z,24.85
2018-07-06T10:30:14.318Z,20.60
2018-07-06T10:33:24.744Z,27.52
2018-07-06T10:36:35.580Z,29.07
2018-07-06T10:39:46.407Z,26.00
2018-07-06T10:42:56.564Z,22.60
2018-07-06T10:46:07.236Z,24.47
2018-07-06T10:49:18.267Z,23.15
2018-07-06T10:52:29.063Z,15.90
2018-07-06T10:55:39.546Z,17.20
2018-07-06T10:58:50.295Z,12.65
2018-07-06T11:02:01.107Z,21.07
2018-07-06T11:05:12.110Z,20.75
2018-07-06T11:08:22.472Z,17.77
2018-07-06T11:11:33.204Z,15.45
2018-07-06T11:14:44.459Z,17.05
2018-07-06T11:17:54.894Z,9.70
2018-07-06T11:21:05.243Z,17.92
2018-07-06T11:24:16.282Z,18.85
2018-07-06T11:27:26.994Z,19.37
2018-07-06T11:30:37.699Z,14.35
2018-07-06T11:33:48.327Z,19.23
2018-07-06T11:36:59.280Z,17.75
2018-07-06T11:40:10.064Z,19.17
2018-07-06T11:43:20.819Z,14.38
2018-07-06T11:46:31.114Z,21.12
2018-07-06T11:49:41.005Z,14.93
2018-07-06T11:52:51.935Z,16.93
2018-07-06T11:56:02.457Z,19.62
2018-07-06T11:59:13.219Z,15.68
2018-07-06T12:02:23.095Z,12.63
2018-07-06T12:05:33.445Z,13.90
2018-07-06T12:08:44.270Z,14.75
2018-07-06T12:11:54.238Z,13.13
2018-07-06T12:15:06.167Z,18.57
2018-07-06T12:18:17.134Z,14.53
2018-07-06T12:21:27.785Z,14.58
2018-07-06T12:24:38.692Z,12.75
2018-07-06T12:27:49.723Z,12.10
2018-07-06T12:31:00.345Z,14.65
2018-07-06T12:34:10.862Z,15.50
2018-07-06T12:37:21.658Z,14.35
2018-07-06T12:40:33.641Z,15.70
2018-07-06T12:43:44.139Z,17.90
2018-07-06T12:46:54.932Z,12.90
2018-07-06T12:50:06.262Z,15.58
2018-07-06T12:53:16.307Z,14.47
2018-07-06T12:56:26.960Z,14.10
2018-07-06T12:59:37.653Z,15.40
2018-07-06T13:02:48.239Z,13.60
2018-07-06T13:05:58.792Z,11.95
2018-07-06T13:09:09.355Z,11.00
2018-07-06T13:12:20.146Z,12.20
2018-07-06T13:15:31.127Z,14.40
2018-07-06T13:18:41.340Z,10.30
2018-07-06T13:21:51.449Z,10.58
2018-07-06T13:25:02.059Z,11.53
2018-07-06T13:28:12.264Z,11.08
2018-07-06T13:31:22.775Z,11.33
2018-07-06T13:34:33.717Z,10.18
2018-07-06T13:37:44.437Z,11.30
2018-07-06T13:40:55.103Z,13.32
2018-07-06T13:44:05.314Z,12.43
2018-07-06T13:47:16.347Z,11.43
2018-07-06T13:50:26.995Z,9.93
2018-07-06T13:53:37.762Z,13.50
2018-07-06T13:56:48.814Z,10.20
2018-07-06T13:59:59.163Z,13.35
2018-07-06T14:03:09.990Z,10.20
2018-07-06T14:06:20.083Z,11.48
2018-07-06T14:09:32.794Z,11.10
2018-07-06T14:12:43.822Z,8.18
2018-07-06T14:15:54.675Z,10.13
2018-07-06T14:19:05.893Z,10.10
2018-07-06T14:22:18.508Z,9.35
2018-07-06T14:25:28.940Z,11.95
2018-07-06T14:28:39.570Z,9.10
2018-07-06T14:31:50.646Z,11.30
2018-07-06T14:35:01.176Z,9.40
2018-07-06T14:38:12.313Z,9.98
2018-07-06T14:41:23.013Z,8.88
2018-07-06T14:44:34.022Z,7.95
2018-07-06T14:47:44.356Z,8.15
2018-07-06T14:50:57.116Z,9.40
2018-07-06T14:54:07.982Z,10.55
2018-07-06T14:57:17.969Z,9.28
2018-07-06T15:00:29.075Z,8.10
2018-07-06T15:03:40.481Z,11.08
2018-07-06T15:06:50.600Z,7.45
2018-07-06T15:10:01.224Z,9.45
2018-07-06T15:13:11.846Z,7.25
2018-07-06T15:16:23.049Z,7.35
2018-07-06T15:19:33.312Z,6.65
2018-07-06T15:22:44.595Z,7.95
2018-07-06T15:25:55.039Z,8.18
2018-07-06T15:29:05.562Z,8.15
2018-07-06T15:32:16.221Z,6.97
2018-07-06T15:35:26.633Z,7.22
2018-07-06T15:38:37.373Z,7.58
2018-07-06T15:41:48.094Z,8.88
2018-07-06T15:44:58.840Z,9.18
2018-07-06T15:48:09.618Z,9.73
2018-07-06T15:51:20.936Z,7.10
2018-07-06T15:54:31.137Z,9.00
2018-07-06T15:57:45.748Z,8.80
2018-07-06T16:00:56.563Z,7.72
2018-07-06T16:04:07.309Z,10.45
2018-07-06T16:07:18.091Z,9.98
2018-07-06T16:10:28.749Z,11.15
2018-07-06T16:13:39.641Z,9.63
2018-07-06T16:16:50.543Z,9.18
2018-07-06T16:20:01.230Z,7.80
2018-07-06T16:23:12.298Z,8.25
2018-07-06T16:26:23.189Z,6.10
2018-07-06T16:29:33.923Z,8.38
2018-07-06T16:32:44.491Z,9.00
2018-07-06T16:35:55.784Z,7.85
2018-07-06T16:39:06.451Z,7.10
2018-07-06T16:42:16.539Z,7.28
2018-07-06T16:45:27.366Z,9.25
2018-07-06T16:48:38.272Z,10.08
2018-07-06T16:51:49.346Z,8.23
2018-07-06T16:54:59.945Z,10.53
2018-07-06T16:58:10.468Z,8.08
2018-07-06T17:01:21.016Z,12.05
2018-07-06T17:04:33.880Z,9.28
2018-07-06T17:07:44.359Z,6.83
2018-07-06T17:10:55.587Z,11.20
2018-07-06T17:14:05.853Z,9.98
2018-07-06T17:17:17.092Z,8.65
2018-07-06T17:20:27.377Z,7.53
2018-07-06T17:23:38.337Z,7.70
2018-07-06T17:26:48.932Z,9.90
2018-07-06T17:29:59.770Z,8.30
2018-07-06T17:33:10.485Z,5.58
2018-07-06T17:36:21.204Z,10.03
2018-07-06T17:39:31.971Z,8.08
2018-07-06T17:42:43.053Z,12.00
2018-07-06T17:45:53.486Z,8.28
2018-07-06T17:49:03.979Z,10.70
2018-07-06T17:52:14.966Z,8.75
2018-07-06T17:55:25.550Z,10.23
2018-07-06T17:58:35.692Z,7.47
2018-07-06T18:01:46.673Z,9.40
2018-07-06T18:04:57.244Z,9.35
2018-07-06T18:08:08.135Z,8.98
2018-07-06T18:11:18.802Z,8.85
2018-07-06T18:14:29.620Z,7.50
2018-07-06T18:17:41.450Z,9.00
2018-07-06T18:20:52.194Z,8.13
2018-07-06T18:24:02.720Z,6.10
2018-07-06T18:27:13.409Z,9.48
2018-07-06T18:30:24.082Z,8.08
2018-07-06T18:33:35.051Z,5.50
2018-07-06T18:36:45.617Z,5.20
2018-07-06T18:39:56.366Z,6.20
2018-07-06T18:43:07.073Z,8.45
2018-07-06T18:46:17.927Z,4.90
2018-07-06T18:49:29.004Z,5.08
2018-07-06T18:52:39.357Z,6.65
2018-07-06T18:55:49.834Z,4.75
2018-07-06T18:58:59.843Z,5.33
2018-07-06T19:02:10.996Z,5.58
2018-07-06T19:05:22.939Z,6.05
2018-07-06T19:08:33.442Z,5.40
2018-07-06T19:11:43.520Z,4.47
2018-07-06T19:14:54.201Z,5.72
2018-07-06T19:18:05.118Z,5.53
2018-07-06T19:21:15.271Z,5.35
2018-07-06T19:24:26.230Z,3.95
2018-07-06T19:27:37.112Z,7.45
2018-07-06T19:30:50.789Z,6.03
2018-07-06T19:34:01.547Z,5.70
2018-07-06T19:37:12.640Z,5.75
2018-07-06T19:40:23.112Z,5.72
2018-07-06T19:43:33.960Z,5.25
2018-07-06T19:46:44.751Z,4.90
2018-07-06T19:49:55.366Z,4.58
2018-07-06T19:53:06.299Z,6.87
2018-07-06T19:56:17.107Z,6.55
2018-07-06T19:59:27.191Z,6.25
2018-07-06T20:02:38.063Z,7.10
2018-07-06T20:05:48.703Z,4.62
2018-07-06T20:08:59.196Z,4.90
2018-07-06T20:12:09.948Z,5.00
2018-07-06T20:15:20.807Z,4.55
2018-07-06T20:18:31.788Z,5.20
2018-07-06T20:21:42.183Z,4.40
2018-07-06T20:24:53.055Z,4.33
2018-07-06T20:28:04.003Z,3.65
2018-07-06T20:31:14.736Z,3.80
2018-07-06T20:34:25.298Z,4.28
2018-07-06T20:37:36.334Z,4.83
2018-07-06T20:40:47.014Z,4.75
2018-07-06T20:43:58.140Z,6.00
2018-07-06T20:47:08.791Z,4.50
2018-07-06T20:50:19.375Z,5.55
2018-07-06T20:53:30.093Z,6.55
2018-07-06T20:56:40.808Z,6.12
2018-07-06T20:59:51.891Z,4.30
2018-07-06T21:03:02.624Z,5.70
2018-07-06T21:06:13.083Z,4.85
2018-07-06T21:09:23.821Z,4.85
2018-07-06T21:12:34.649Z,4.17
2018-07-06T21:15:45.319Z,5.25
2018-07-06T21:18:56.501Z,4.60
2018-07-06T21:22:07.355Z,5.55
2018-07-06T21:25:17.735Z,4.47
2018-07-06T21:28:28.282Z,6.85
2018-07-06T21:31:39.878Z,4.70
2018-07-06T21:34:50.092Z,4.67
2018-07-06T21:38:00.659Z,4.60
2018-07-06T21:41:11.328Z,4.20
2018-07-06T21:44:21.879Z,3.60
2018-07-06T21:47:32.653Z,5.65
2018-07-06T21:50:43.298Z,4.17
2018-07-06T21:53:53.912Z,4.87
2018-07-06T21:57:04.447Z,6.25
2018-07-06T22:00:15.328Z,5.83
2018-07-06T22:03:26.267Z,5.45
2018-07-06T22:06:36.884Z,4.87
2018-07-06T22:09:47.340Z,5.20
2018-07-06T22:12:58.390Z,4.75
2018-07-06T22:16:09.183Z,5.22
2018-07-06T22:19:20.383Z,4.65
2018-07-06T22:22:30.919Z,5.25
2018-07-06T22:25:42.692Z,5.97
2018-07-06T22:28:53.667Z,5.80
2018-07-06T22:32:04.342Z,5.08
2018-07-06T22:35:15.078Z,6.50
2018-07-06T22:38:25.872Z,7.33
2018-07-06T22:41:36.437Z,4.75
2018-07-06T22:44:47.208Z,4.60
2018-07-06T22:47:57.896Z,5.25
2018-07-06T22:51:08.893Z,5.28
2018-07-06T22:54:19.978Z,6.03
2018-07-06T22:57:30.628Z,7.15
2018-07-06T23:00:41.891Z,6.50
2018-07-06T23:03:52.178Z,6.85
2018-07-06T23:07:03.125Z,7.35
2018-07-06T23:10:13.936Z,5.97
2018-07-06T23:13:24.510Z,6.60
2018-07-06T23:16:35.213Z,7.25
2018-07-06T23:19:46.544Z,5.58
2018-07-06T23:23:01.549Z,6.50
2018-07-06T23:26:11.904Z,5.55
2018-07-06T23:29:22.502Z,5.70
2018-07-06T23:32:32.627Z,5.67
2018-07-06T23:35:43.781Z,5.67
2018-07-06T23:38:54.270Z,7.62
2018-07-06T23:42:05.173Z,6.53
2018-07-06T23:45:16.043Z,5.58
2018-07-06T23:48:26.678Z,6.28
2018-07-06T23:51:38.367Z,7.20
2018-07-06T23:54:50.999Z,7.55
2018-07-06T23:58:01.720Z,4.90
